Terminal Aerodrome Forecast
Issued by NWS Austin/San Antonio, TX

Current Version | Previous Version | Text Only | Print | Product List | Glossary Off
Versions: 1 2 3 4 5 6 7 8 9 10 11 12 13 14 15 16 17 18 19 20 21 22 23 24 25

000
FTUS44 KEWX 250700 AAA
TAFSAT
TAF AMD
KSAT 250700Z 2507/2612 19008KT P6SM SKC
     FM251400 18015G25KT P6SM FEW250
     FM260530 18012KT P6SM BKN016=

USA.gov is the U.S. government's official web portal to all federal, state and local government web resources and services.